createdAt,value
2022-11-14T00:02:35.600Z,5.30
2022-11-14T00:05:21.188Z,5.30
2022-11-14T00:08:09.273Z,5.20
2022-11-14T00:10:54.899Z,5.30
2022-11-14T00:13:40.029Z,5.20
2022-11-14T00:16:25.268Z,5.30
2022-11-14T00:19:10.850Z,5.20
2022-11-14T00:21:56.245Z,5.30
2022-11-14T00:24:41.364Z,5.30
2022-11-14T00:27:26.706Z,5.40
2022-11-14T00:30:12.278Z,5.30
2022-11-14T00:32:57.417Z,5.30
2022-11-14T00:35:56.202Z,5.30
2022-11-14T00:38:41.684Z,5.20
2022-11-14T00:41:27.108Z,5.20
2022-11-14T00:44:12.527Z,5.20
2022-11-14T00:46:58.056Z,5.20
2022-11-14T00:49:43.336Z,5.30
2022-11-14T00:52:28.752Z,5.20
2022-11-14T00:55:13.994Z,5.20
2022-11-14T00:57:59.688Z,5.30
2022-11-14T01:00:45.172Z,5.20
2022-11-14T01:03:30.689Z,5.20
2022-11-14T01:06:16.557Z,5.10
2022-11-14T01:09:02.119Z,5.10
2022-11-14T01:11:47.679Z,5.10
2022-11-14T01:14:33.293Z,5.20
2022-11-14T01:17:18.449Z,5.10
2022-11-14T01:20:04.770Z,5.20
2022-11-14T01:22:50.247Z,5.20
2022-11-14T01:25:36.755Z,5.20
2022-11-14T01:28:22.192Z,5.20
2022-11-14T01:31:12.191Z,5.10
2022-11-14T01:33:57.494Z,5.20
2022-11-14T01:36:42.934Z,5.20
2022-11-14T01:39:28.456Z,5.10
2022-11-14T01:42:13.842Z,5.10
2022-11-14T01:44:59.539Z,5.10
2022-11-14T01:47:45.096Z,5.10
2022-11-14T01:50:30.209Z,5.10
2022-11-14T01:53:15.538Z,5.20
2022-11-14T01:56:03.352Z,5.10
2022-11-14T01:58:52.125Z,5.10
2022-11-14T02:01:42.355Z,5.10
2022-11-14T02:04:30.020Z,5.10
2022-11-14T02:07:15.377Z,5.10
2022-11-14T02:10:02.095Z,5.10
2022-11-14T02:12:47.880Z,5.20
2022-11-14T02:15:33.178Z,5.20
2022-11-14T02:18:18.344Z,5.10
2022-11-14T02:21:04.113Z,5.20
2022-11-14T02:23:49.246Z,5.10
2022-11-14T02:26:36.871Z,5.20
2022-11-14T02:29:22.141Z,5.20
2022-11-14T02:32:10.715Z,5.20
2022-11-14T02:34:56.304Z,5.20
2022-11-14T02:37:41.657Z,5.10
2022-11-14T02:40:27.147Z,5.10
2022-11-14T02:43:12.947Z,5.20
2022-11-14T02:46:01.483Z,5.20
2022-11-14T02:48:50.684Z,5.10
2022-11-14T02:51:36.420Z,5.10
2022-11-14T02:54:21.614Z,5.20
2022-11-14T02:57:07.369Z,5.20
2022-11-14T02:59:52.523Z,5.30
2022-11-14T03:02:38.183Z,5.30
2022-11-14T03:05:23.412Z,5.20
2022-11-14T03:08:08.764Z,5.30
2022-11-14T03:10:54.422Z,5.20
2022-11-14T03:13:39.777Z,5.30
2022-11-14T03:16:24.999Z,5.20
2022-11-14T03:19:10.682Z,5.10
2022-11-14T03:21:56.006Z,5.10
2022-11-14T03:24:41.350Z,5.10
2022-11-14T03:27:26.774Z,5.20
2022-11-14T03:30:12.137Z,5.10
2022-11-14T03:32:57.469Z,5.10
2022-11-14T03:35:43.636Z,5.10
2022-11-14T03:38:29.229Z,5.10
2022-11-14T03:41:14.621Z,5.00
2022-11-14T03:44:00.004Z,5.10
2022-11-14T03:46:45.474Z,5.10
2022-11-14T03:49:30.962Z,5.10
2022-11-14T03:52:16.139Z,5.10
2022-11-14T03:55:01.424Z,5.10
2022-11-14T03:57:47.000Z,5.10
2022-11-14T04:00:32.544Z,5.20
2022-11-14T04:03:17.943Z,5.10
2022-11-14T04:06:03.705Z,5.00
2022-11-14T04:08:48.755Z,5.00
2022-11-14T04:11:34.270Z,5.00
2022-11-14T04:14:19.907Z,5.00
2022-11-14T04:17:05.484Z,5.00
2022-11-14T04:19:50.769Z,5.00
2022-11-14T04:22:36.264Z,5.00
2022-11-14T04:25:21.763Z,5.00
2022-11-14T04:28:07.245Z,5.00
2022-11-14T04:30:52.851Z,5.00
2022-11-14T04:33:38.361Z,5.00
2022-11-14T04:36:23.849Z,4.90
2022-11-14T04:39:09.391Z,5.00
2022-11-14T04:41:54.753Z,4.90
2022-11-14T04:44:40.430Z,4.90
2022-11-14T04:47:26.039Z,5.00
2022-11-14T04:50:11.495Z,4.90
2022-11-14T04:52:57.148Z,5.00
2022-11-14T04:55:44.554Z,5.00
2022-11-14T04:58:30.196Z,5.00
2022-11-14T05:01:15.795Z,4.90
2022-11-14T05:04:00.947Z,5.00
2022-11-14T05:06:46.592Z,5.00
2022-11-14T05:09:31.887Z,5.00
2022-11-14T05:12:17.322Z,5.10
2022-11-14T05:15:02.995Z,5.50
2022-11-14T05:17:48.140Z,5.60
2022-11-14T05:20:33.684Z,5.40
2022-11-14T05:23:21.572Z,5.60
2022-11-14T05:26:15.080Z,5.60
2022-11-14T05:29:00.509Z,5.60
2022-11-14T05:31:45.907Z,5.60
2022-11-14T05:34:31.531Z,5.70
2022-11-14T05:37:16.740Z,5.60
2022-11-14T05:40:02.725Z,5.50
2022-11-14T05:42:47.791Z,5.50
2022-11-14T05:45:33.367Z,5.50
2022-11-14T05:48:18.835Z,5.80
2022-11-14T05:51:05.106Z,5.80
2022-11-14T05:53:50.679Z,5.90
2022-11-14T05:56:36.091Z,5.90
2022-11-14T05:59:21.494Z,5.90
2022-11-14T06:02:06.615Z,5.90
2022-11-14T06:04:52.142Z,6.10
2022-11-14T06:07:39.045Z,5.80
2022-11-14T06:10:24.667Z,5.60
2022-11-14T06:13:10.025Z,5.50
2022-11-14T06:15:59.973Z,5.70
2022-11-14T06:18:45.679Z,5.70
2022-11-14T06:21:31.068Z,6.00
2022-11-14T06:24:16.596Z,6.00
2022-11-14T06:27:01.965Z,6.00
2022-11-14T06:29:47.491Z,6.30
2022-11-14T06:32:32.776Z,6.40
2022-11-14T06:35:18.320Z,6.60
2022-11-14T06:38:03.688Z,6.80
2022-11-14T06:40:49.216Z,6.70
2022-11-14T06:43:39.511Z,6.50
2022-11-14T06:46:24.768Z,6.60
2022-11-14T06:49:10.023Z,6.70
2022-11-14T06:51:55.555Z,6.80
2022-11-14T06:54:40.693Z,6.60
2022-11-14T06:57:26.221Z,6.70
2022-11-14T07:00:11.985Z,6.70
2022-11-14T07:02:57.263Z,6.60
2022-11-14T07:05:42.673Z,6.40
2022-11-14T07:08:28.321Z,6.10
2022-11-14T07:11:22.613Z,6.40
2022-11-14T07:14:09.083Z,6.60
2022-11-14T07:16:54.268Z,6.90
2022-11-14T07:19:39.572Z,7.00
2022-11-14T07:22:24.998Z,7.10
2022-11-14T07:25:10.334Z,7.00
2022-11-14T07:27:57.655Z,7.00
2022-11-14T07:30:43.102Z,6.90
2022-11-14T07:33:29.606Z,6.90
2022-11-14T07:36:16.662Z,6.80
2022-11-14T07:39:04.576Z,6.80
2022-11-14T07:41:50.410Z,6.90
2022-11-14T07:44:37.307Z,6.90
2022-11-14T07:47:22.891Z,6.70
2022-11-14T07:50:08.890Z,6.70
2022-11-14T07:52:54.439Z,6.70
2022-11-14T07:55:40.802Z,6.50
2022-11-14T07:58:26.177Z,6.50
2022-11-14T08:01:13.834Z,6.60
2022-11-14T08:03:59.158Z,6.50
2022-11-14T08:06:45.743Z,6.50
2022-11-14T08:09:30.975Z,6.40
2022-11-14T08:12:16.210Z,6.40
2022-11-14T08:15:02.181Z,6.40
2022-11-14T08:17:47.720Z,6.10
2022-11-14T08:20:33.014Z,6.10
2022-11-14T08:23:18.571Z,6.10
2022-11-14T08:26:04.039Z,6.20
2022-11-14T08:28:53.027Z,6.20
2022-11-14T08:31:38.501Z,6.20
2022-11-14T08:34:24.944Z,6.10
2022-11-14T08:37:10.187Z,6.20
2022-11-14T08:39:55.410Z,6.50
2022-11-14T08:42:40.804Z,6.50
2022-11-14T08:45:26.130Z,6.80
2022-11-14T08:48:11.766Z,6.70
2022-11-14T08:50:57.372Z,6.60
2022-11-14T08:53:42.751Z,6.90
2022-11-14T08:56:28.309Z,6.80
2022-11-14T08:59:13.520Z,6.80
2022-11-14T09:01:59.026Z,6.80
2022-11-14T09:04:44.908Z,6.80
2022-11-14T09:07:29.985Z,6.70
2022-11-14T09:10:16.008Z,6.80
2022-11-14T09:13:01.691Z,6.90
2022-11-14T09:15:47.174Z,6.80
2022-11-14T09:18:32.860Z,6.70
2022-11-14T09:21:18.668Z,6.60
2022-11-14T09:24:03.920Z,6.50
2022-11-14T09:26:56.398Z,6.40
2022-11-14T09:29:42.625Z,6.30
2022-11-14T09:32:28.020Z,6.30
2022-11-14T09:35:13.367Z,6.40
2022-11-14T09:38:03.460Z,6.30
2022-11-14T09:41:08.091Z,6.40
2022-11-14T09:44:34.603Z,6.50
2022-11-14T09:47:30.676Z,6.40
2022-11-14T09:50:21.765Z,6.30
2022-11-14T09:53:34.136Z,6.40
2022-11-14T09:56:25.119Z,6.50
2022-11-14T09:59:13.394Z,6.40
2022-11-14T10:02:20.574Z,6.60
2022-11-14T10:05:30.235Z,6.60
2022-11-14T10:08:15.609Z,6.60
2022-11-14T10:11:14.125Z,6.60
2022-11-14T10:14:19.031Z,6.50
2022-11-14T10:17:26.528Z,6.80
2022-11-14T10:20:28.954Z,6.90
2022-11-14T10:23:40.446Z,6.90
2022-11-14T10:26:32.380Z,7.10
2022-11-14T10:29:55.562Z,6.90
2022-11-14T10:32:44.973Z,6.80
2022-11-14T10:35:35.171Z,6.80
2022-11-14T10:38:24.408Z,6.80
2022-11-14T10:41:19.316Z,6.90
2022-11-14T10:44:16.466Z,6.90
2022-11-14T10:47:04.460Z,7.10
2022-11-14T10:49:50.258Z,7.20
2022-11-14T10:52:38.840Z,7.20
2022-11-14T10:55:43.491Z,7.10
2022-11-14T10:58:30.370Z,7.30
2022-11-14T11:01:38.767Z,7.20
2022-11-14T11:04:31.781Z,7.30
2022-11-14T11:07:39.852Z,7.30
2022-11-14T11:10:43.982Z,7.30
2022-11-14T11:13:48.251Z,7.30
2022-11-14T11:16:34.050Z,7.40
2022-11-14T11:19:26.431Z,7.40
2022-11-14T11:22:37.484Z,7.40
2022-11-14T11:25:28.367Z,7.40
2022-11-14T11:28:21.911Z,7.40
2022-11-14T11:34:33.678Z,7.40
2022-11-14T11:40:17.043Z,7.50
2022-11-14T11:46:14.513Z,7.40
2022-11-14T11:49:03.324Z,7.40
2022-11-14T11:51:48.348Z,7.40
2022-11-14T11:54:42.818Z,7.40
2022-11-14T11:57:36.002Z,7.40
2022-11-14T12:00:22.112Z,7.40
2022-11-14T12:03:12.737Z,7.40
2022-11-14T12:06:10.401Z,7.50
2022-11-14T12:09:10.560Z,7.50
2022-11-14T12:12:00.290Z,7.50
2022-11-14T12:15:01.225Z,7.50
2022-11-14T12:18:15.592Z,7.40
2022-11-14T12:21:33.168Z,7.40
2022-11-14T12:24:58.333Z,7.20
2022-11-14T12:28:00.257Z,7.20
2022-11-14T12:30:51.674Z,7.10
2022-11-14T12:33:38.119Z,7.10
2022-11-14T12:36:28.802Z,7.10
2022-11-14T12:39:25.398Z,7.00
2022-11-14T12:42:14.534Z,7.10
2022-11-14T12:44:59.982Z,7.10
2022-11-14T12:48:19.761Z,7.00
2022-11-14T12:51:08.805Z,7.10
2022-11-14T12:53:55.515Z,7.10
2022-11-14T12:56:54.169Z,7.10
2022-11-14T12:59:49.217Z,7.00
2022-11-14T13:02:40.501Z,7.00
2022-11-14T13:05:46.620Z,7.10
2022-11-14T13:08:50.656Z,7.10
2022-11-14T13:12:04.271Z,7.10
2022-11-14T13:15:13.458Z,7.10
2022-11-14T13:18:41.570Z,7.10
2022-11-14T13:21:46.664Z,7.10
2022-11-14T13:25:01.834Z,7.10
2022-11-14T13:28:07.936Z,7.10
2022-11-14T13:31:06.219Z,7.10
2022-11-14T13:34:01.503Z,7.10
2022-11-14T13:37:09.369Z,7.10
2022-11-14T13:40:17.249Z,7.20
2022-11-14T13:43:10.569Z,7.20
2022-11-14T13:46:02.395Z,7.10
2022-11-14T13:49:15.905Z,7.20
2022-11-14T13:52:01.241Z,7.20
2022-11-14T13:54:50.088Z,7.10
2022-11-14T13:57:35.525Z,7.20
2022-11-14T14:00:21.447Z,7.20
2022-11-14T14:03:21.284Z,7.20
2022-11-14T14:06:50.539Z,7.10
2022-11-14T14:09:47.656Z,7.10
2022-11-14T14:12:38.857Z,7.00
2022-11-14T14:15:32.237Z,7.10
2022-11-14T14:18:20.220Z,7.10
2022-11-14T14:21:15.951Z,7.10
2022-11-14T14:24:31.156Z,7.10
2022-11-14T14:27:32.776Z,7.10
2022-11-14T14:30:18.871Z,7.10
2022-11-14T14:33:06.943Z,7.10
2022-11-14T14:35:52.788Z,7.10
2022-11-14T14:38:38.621Z,7.10
2022-11-14T14:41:24.025Z,7.10
2022-11-14T14:44:23.857Z,7.10
2022-11-14T14:47:35.964Z,7.10
2022-11-14T14:50:23.421Z,7.20
2022-11-14T14:53:37.021Z,7.10
2022-11-14T14:56:24.961Z,7.10
2022-11-14T14:59:21.510Z,7.20
2022-11-14T15:02:12.631Z,7.20
2022-11-14T15:04:59.085Z,7.10
2022-11-14T15:07:46.340Z,7.20
2022-11-14T15:10:31.872Z,7.20
2022-11-14T15:13:17.955Z,7.20
2022-11-14T15:16:04.262Z,7.20
2022-11-14T15:18:50.636Z,7.20
2022-11-14T15:21:35.971Z,7.20
2022-11-14T15:24:23.033Z,7.20
2022-11-14T15:27:15.937Z,7.20
2022-11-14T15:30:03.246Z,7.20
2022-11-14T15:32:50.670Z,7.20
2022-11-14T15:35:37.158Z,7.20
2022-11-14T15:41:29.560Z,7.20
2022-11-14T15:44:33.796Z,7.10
2022-11-14T15:47:28.775Z,7.10
2022-11-14T15:50:14.198Z,7.10
2022-11-14T15:53:06.496Z,7.10
2022-11-14T15:55:51.836Z,7.10
2022-11-14T15:58:37.300Z,7.10
2022-11-14T16:01:23.929Z,7.10
2022-11-14T16:04:17.926Z,7.10
2022-11-14T16:07:03.834Z,7.10
2022-11-14T16:09:49.425Z,7.10
2022-11-14T16:12:34.643Z,7.10
2022-11-14T16:15:20.563Z,7.10
2022-11-14T16:18:06.079Z,7.10
2022-11-14T16:20:51.738Z,7.10
2022-11-14T16:23:39.236Z,7.10
2022-11-14T16:26:27.307Z,7.10
2022-11-14T16:29:12.674Z,7.10
2022-11-14T16:31:57.942Z,7.10
2022-11-14T16:34:43.397Z,7.10
2022-11-14T16:37:28.813Z,7.20
2022-11-14T16:40:26.815Z,7.20
2022-11-14T16:43:29.544Z,7.20
2022-11-14T16:46:22.423Z,7.20
2022-11-14T16:49:07.888Z,7.20
2022-11-14T16:51:55.817Z,7.20
2022-11-14T16:54:41.168Z,7.20
2022-11-14T16:57:26.640Z,7.30
2022-11-14T17:00:12.768Z,7.20
2022-11-14T17:02:58.130Z,7.20
2022-11-14T17:05:44.641Z,7.30
2022-11-14T17:08:30.121Z,7.20
2022-11-14T17:11:15.560Z,7.20
2022-11-14T17:14:00.960Z,7.20
2022-11-14T17:16:46.740Z,7.20
2022-11-14T17:19:32.356Z,7.10
2022-11-14T17:22:18.249Z,7.10
2022-11-14T17:25:04.031Z,7.00
2022-11-14T17:27:49.479Z,7.00
2022-11-14T17:30:34.608Z,7.00
2022-11-14T17:33:19.997Z,7.00
2022-11-14T17:36:06.437Z,7.00
2022-11-14T17:38:52.059Z,7.00
2022-11-14T17:41:37.277Z,7.00
2022-11-14T17:44:22.637Z,7.00
2022-11-14T17:47:08.338Z,7.00
2022-11-14T17:49:53.952Z,7.00
2022-11-14T17:52:41.474Z,7.00
2022-11-14T17:55:26.652Z,7.00
2022-11-14T17:58:12.466Z,7.00
2022-11-14T18:00:58.902Z,7.00
2022-11-14T18:03:44.448Z,7.00
2022-11-14T18:06:29.622Z,7.00
2022-11-14T18:09:15.252Z,7.00
2022-11-14T18:12:00.820Z,7.00
2022-11-14T18:14:46.507Z,7.00
2022-11-14T18:17:32.201Z,7.00
2022-11-14T18:20:17.521Z,7.10
2022-11-14T18:23:03.001Z,7.10
2022-11-14T18:25:48.401Z,7.10
2022-11-14T18:28:34.174Z,7.10
2022-11-14T18:31:19.479Z,7.10
2022-11-14T18:34:05.261Z,7.10
2022-11-14T18:36:50.889Z,7.10
2022-11-14T18:39:36.158Z,7.20
2022-11-14T18:42:21.703Z,7.10
2022-11-14T18:45:07.340Z,7.20
2022-11-14T18:47:52.729Z,7.20
2022-11-14T18:50:38.321Z,7.20
2022-11-14T18:53:24.313Z,7.20
2022-11-14T18:56:14.655Z,7.30
2022-11-14T18:59:00.475Z,7.30
2022-11-14T19:01:46.004Z,7.30
2022-11-14T19:04:31.080Z,7.30
2022-11-14T19:07:16.753Z,7.30
2022-11-14T19:10:02.061Z,7.30
2022-11-14T19:12:48.771Z,7.30
2022-11-14T19:15:34.350Z,7.40
2022-11-14T19:18:19.535Z,7.40
2022-11-14T19:21:08.855Z,7.40
2022-11-14T19:23:54.737Z,7.40
2022-11-14T19:26:42.368Z,7.50
2022-11-14T19:29:28.169Z,7.50
2022-11-14T19:32:16.678Z,7.50
2022-11-14T19:35:02.000Z,7.50
2022-11-14T19:37:47.298Z,7.50
2022-11-14T19:40:32.795Z,7.50
2022-11-14T19:43:18.686Z,7.50
2022-11-14T19:46:04.826Z,7.50
2022-11-14T19:48:50.025Z,7.50
2022-11-14T19:51:35.531Z,7.50
2022-11-14T19:54:21.019Z,7.50
2022-11-14T19:57:06.481Z,7.50
2022-11-14T19:59:52.371Z,7.60
2022-11-14T20:02:40.383Z,7.60
2022-11-14T20:05:25.995Z,7.70
2022-11-14T20:08:11.548Z,7.70
2022-11-14T20:11:03.064Z,7.80
2022-11-14T20:13:48.862Z,7.80
2022-11-14T20:16:35.317Z,7.90
2022-11-14T20:19:20.636Z,8.00
2022-11-14T20:22:06.635Z,8.00
2022-11-14T20:24:51.980Z,8.00
2022-11-14T20:27:37.357Z,8.00
2022-11-14T20:30:22.963Z,8.10
2022-11-14T20:33:08.542Z,8.10
2022-11-14T20:35:53.826Z,8.20
2022-11-14T20:38:39.320Z,8.20
2022-11-14T20:41:25.093Z,8.30
2022-11-14T20:44:10.221Z,8.30
2022-11-14T20:46:57.012Z,8.30
2022-11-14T20:49:43.343Z,8.30
2022-11-14T20:52:28.989Z,8.30
2022-11-14T20:55:15.415Z,8.40
2022-11-14T20:58:01.003Z,8.40
2022-11-14T21:00:46.472Z,8.40
2022-11-14T21:03:32.323Z,8.40
2022-11-14T21:06:18.058Z,8.40
2022-11-14T21:09:03.718Z,8.40
2022-11-14T21:11:49.137Z,8.40
2022-11-14T21:14:34.579Z,8.50
2022-11-14T21:17:20.155Z,8.70
2022-11-14T21:20:05.918Z,8.70
2022-11-14T21:22:51.364Z,9.00
2022-11-14T21:25:36.987Z,9.50
2022-11-14T21:28:22.492Z,9.80
2022-11-14T21:31:34.128Z,10.00
2022-11-14T21:34:19.235Z,10.10
2022-11-14T21:37:04.476Z,10.20
2022-11-14T21:39:49.509Z,10.20
2022-11-14T21:42:35.014Z,10.20
2022-11-14T21:45:20.475Z,10.00
2022-11-14T21:48:06.051Z,9.90
2022-11-14T21:50:51.447Z,9.70
2022-11-14T21:53:36.743Z,9.50
2022-11-14T21:56:27.492Z,9.40
2022-11-14T21:59:21.309Z,9.30
2022-11-14T22:02:27.524Z,9.20
2022-11-14T22:05:13.173Z,9.20
2022-11-14T22:07:58.472Z,9.10
2022-11-14T22:10:43.984Z,9.00
2022-11-14T22:13:30.815Z,9.00
2022-11-14T22:16:19.364Z,9.00
2022-11-14T22:19:05.817Z,8.90
2022-11-14T22:21:51.540Z,8.90
2022-11-14T22:24:36.914Z,8.90
2022-11-14T22:27:22.400Z,8.90
2022-11-14T22:30:08.531Z,9.00
2022-11-14T22:32:53.637Z,9.00
2022-11-14T22:35:39.169Z,9.00
2022-11-14T22:38:24.576Z,9.00
2022-11-14T22:41:13.044Z,9.00
2022-11-14T22:43:58.608Z,9.00
2022-11-14T22:46:44.065Z,9.00
2022-11-14T22:49:29.485Z,9.00
2022-11-14T22:52:14.866Z,9.10
2022-11-14T22:55:00.510Z,9.10
2022-11-14T22:57:46.154Z,9.10
2022-11-14T23:00:31.659Z,9.10
2022-11-14T23:03:20.560Z,9.10
2022-11-14T23:06:10.395Z,9.20
2022-11-14T23:08:55.626Z,9.20
2022-11-14T23:11:41.012Z,9.30
2022-11-14T23:14:26.704Z,9.30
2022-11-14T23:17:11.874Z,9.40
2022-11-14T23:19:57.261Z,9.40
2022-11-14T23:22:42.682Z,9.40
2022-11-14T23:25:28.223Z,9.50
2022-11-14T23:28:13.954Z,9.50
2022-11-14T23:30:59.415Z,9.40
2022-11-14T23:33:48.441Z,9.40
2022-11-14T23:36:33.672Z,9.40
2022-11-14T23:39:19.105Z,9.50
2022-11-14T23:42:04.641Z,9.50
2022-11-14T23:44:49.824Z,9.50
2022-11-14T23:47:35.372Z,9.50
2022-11-14T23:50:20.776Z,9.50
2022-11-14T23:53:06.168Z,9.50
2022-11-14T23:55:55.484Z,9.50
2022-11-14T23:58:41.509Z,9.50
